Accueil
METAR-TAF:

METAR-TAF

Aéroports :

Lexington, Caroline du Nord, États-Unis

latitude: 35-46-52N, longitude: 080-18-14W, altitude: 223 m

Observation

Le bulletin a été fait il y a 27 minutes, à 22:15 UTC
Vent 3 kt de nord
Température 12°C
Humidité 50%
Pression 1022 hPa
Visibilité: 16.1 km
Ciel clair

METAR: KEXX 202215Z AUTO 36003KT 10SM CLR 12/02 A3017 RMK AO2 T01200017

Heure: 17:42 (22:42 UTC)


TAF: absent

Observations et prévisions météorologiques de plus de 4000 aéroports (messages METAR et TAF).

Les stations disponibles sont représentées par des disques jaunes et rouges sur la carte.

Passer la souris dessus pour voir le nom de la station.

Cliquer dessus pour voir les observations et prévisions météorologiques.

Pour changer de carte: cliquez sur les boutons verts avec une croix noire pour zoomer, sur le bouton vert avec un tiret pour effectuer un zoom arrière, ou sur les flèches vertes pour les cartes adjacentes.


METAR-TAF: